sensor_id;sensor_type;location;lat;lon;timestamp;P1;durP1;ratioP1;P2;durP2;ratioP2
52898;SDS011;38763;53.096;6.062;2023-08-21T00:00:47;10.13;;;3.67;;
52898;SDS011;38763;53.096;6.062;2023-08-21T00:03:13;8.38;;;3.55;;
52898;SDS011;38763;53.096;6.062;2023-08-21T00:05:39;7.57;;;3.40;;
52898;SDS011;38763;53.096;6.062;2023-08-21T00:08:04;7.38;;;3.60;;
52898;SDS011;38763;53.096;6.062;2023-08-21T00:10:30;8.40;;;3.60;;
52898;SDS011;38763;53.096;6.062;2023-08-21T00:12:56;9.27;;;3.58;;
52898;SDS011;38763;53.096;6.062;2023-08-21T00:15:22;6.78;;;3.70;;
52898;SDS011;38763;53.096;6.062;2023-08-21T00:17:48;9.95;;;4.00;;
52898;SDS011;38763;53.096;6.062;2023-08-21T00:20:13;8.10;;;3.50;;
52898;SDS011;38763;53.096;6.062;2023-08-21T00:22:39;9.80;;;3.90;;
52898;SDS011;38763;53.096;6.062;2023-08-21T00:25:05;8.50;;;3.63;;
52898;SDS011;38763;53.096;6.062;2023-08-21T00:27:31;7.72;;;3.30;;
52898;SDS011;38763;53.096;6.062;2023-08-21T00:29:57;6.45;;;2.85;;
52898;SDS011;38763;53.096;6.062;2023-08-21T00:32:25;6.57;;;3.08;;
52898;SDS011;38763;53.096;6.062;2023-08-21T00:34:50;7.43;;;2.80;;
52898;SDS011;38763;53.096;6.062;2023-08-21T00:37:16;6.47;;;3.45;;
52898;SDS011;38763;53.096;6.062;2023-08-21T00:39:42;9.07;;;3.72;;
52898;SDS011;38763;53.096;6.062;2023-08-21T00:42:07;7.35;;;3.85;;
52898;SDS011;38763;53.096;6.062;2023-08-21T00:44:33;10.25;;;3.45;;
52898;SDS011;38763;53.096;6.062;2023-08-21T00:46:59;7.35;;;2.83;;
52898;SDS011;38763;53.096;6.062;2023-08-21T00:49:25;7.70;;;3.58;;
52898;SDS011;38763;53.096;6.062;2023-08-21T00:51:51;7.72;;;3.42;;
52898;SDS011;38763;53.096;6.062;2023-08-21T00:54:18;8.93;;;3.30;;
52898;SDS011;38763;53.096;6.062;2023-08-21T00:56:44;10.43;;;3.75;;
52898;SDS011;38763;53.096;6.062;2023-08-21T00:59:10;12.45;;;4.18;;
52898;SDS011;38763;53.096;6.062;2023-08-21T01:01:36;7.32;;;3.38;;
52898;SDS011;38763;53.096;6.062;2023-08-21T01:04:02;6.15;;;3.35;;
52898;SDS011;38763;53.096;6.062;2023-08-21T01:06:28;8.18;;;3.15;;
52898;SDS011;38763;53.096;6.062;2023-08-21T01:08:59;9.18;;;3.65;;
52898;SDS011;38763;53.096;6.062;2023-08-21T01:11:34;7.32;;;3.05;;
52898;SDS011;38763;53.096;6.062;2023-08-21T01:14:15;7.22;;;3.05;;
52898;SDS011;38763;53.096;6.062;2023-08-21T01:16:52;8.70;;;3.00;;
52898;SDS011;38763;53.096;6.062;2023-08-21T01:19:41;8.75;;;3.10;;
52898;SDS011;38763;53.096;6.062;2023-08-21T01:22:08;7.38;;;3.00;;
52898;SDS011;38763;53.096;6.062;2023-08-21T01:24:35;8.07;;;3.17;;
52898;SDS011;38763;53.096;6.062;2023-08-21T01:27:01;10.93;;;3.40;;
52898;SDS011;38763;53.096;6.062;2023-08-21T01:29:27;7.07;;;3.10;;
52898;SDS011;38763;53.096;6.062;2023-08-21T01:31:58;6.57;;;3.05;;
52898;SDS011;38763;53.096;6.062;2023-08-21T01:34:31;8.07;;;2.95;;
52898;SDS011;38763;53.096;6.062;2023-08-21T01:37:00;6.28;;;2.90;;
52898;SDS011;38763;53.096;6.062;2023-08-21T01:39:26;6.65;;;3.17;;
52898;SDS011;38763;53.096;6.062;2023-08-21T01:41:52;7.88;;;3.10;;
52898;SDS011;38763;53.096;6.062;2023-08-21T01:44:18;7.95;;;2.65;;
52898;SDS011;38763;53.096;6.062;2023-08-21T01:46:43;5.97;;;2.53;;
52898;SDS011;38763;53.096;6.062;2023-08-21T01:49:09;6.45;;;2.60;;
52898;SDS011;38763;53.096;6.062;2023-08-21T01:51:35;7.70;;;2.60;;
52898;SDS011;38763;53.096;6.062;2023-08-21T01:54:00;8.52;;;2.72;;
52898;SDS011;38763;53.096;6.062;2023-08-21T01:56:26;5.32;;;2.30;;
52898;SDS011;38763;53.096;6.062;2023-08-21T01:58:52;7.57;;;2.70;;
52898;SDS011;38763;53.096;6.062;2023-08-21T02:01:17;9.43;;;2.92;;
52898;SDS011;38763;53.096;6.062;2023-08-21T02:03:44;6.18;;;2.90;;
52898;SDS011;38763;53.096;6.062;2023-08-21T02:06:10;6.28;;;2.60;;
52898;SDS011;38763;53.096;6.062;2023-08-21T02:08:36;6.57;;;2.83;;
52898;SDS011;38763;53.096;6.062;2023-08-21T02:11:02;5.85;;;2.83;;
52898;SDS011;38763;53.096;6.062;2023-08-21T02:13:28;7.47;;;2.70;;
52898;SDS011;38763;53.096;6.062;2023-08-21T02:15:53;9.10;;;3.00;;
52898;SDS011;38763;53.096;6.062;2023-08-21T02:18:19;9.93;;;3.25;;
52898;SDS011;38763;53.096;6.062;2023-08-21T02:20:45;8.52;;;3.60;;
52898;SDS011;38763;53.096;6.062;2023-08-21T02:23:13;7.70;;;3.20;;
52898;SDS011;38763;53.096;6.062;2023-08-21T02:25:39;7.30;;;3.17;;
52898;SDS011;38763;53.096;6.062;2023-08-21T02:28:05;8.57;;;3.38;;
52898;SDS011;38763;53.096;6.062;2023-08-21T02:30:31;9.65;;;3.30;;
52898;SDS011;38763;53.096;6.062;2023-08-21T02:32:57;10.48;;;3.30;;
52898;SDS011;38763;53.096;6.062;2023-08-21T02:35:22;11.57;;;3.17;;
52898;SDS011;38763;53.096;6.062;2023-08-21T02:37:48;10.82;;;3.15;;
52898;SDS011;38763;53.096;6.062;2023-08-21T02:40:14;9.07;;;2.70;;
52898;SDS011;38763;53.096;6.062;2023-08-21T02:42:40;9.05;;;2.95;;
52898;SDS011;38763;53.096;6.062;2023-08-21T02:45:06;9.05;;;2.70;;
52898;SDS011;38763;53.096;6.062;2023-08-21T02:47:38;8.73;;;3.10;;
52898;SDS011;38763;53.096;6.062;2023-08-21T02:50:04;7.60;;;2.50;;
52898;SDS011;38763;53.096;6.062;2023-08-21T02:52:31;6.15;;;2.53;;
52898;SDS011;38763;53.096;6.062;2023-08-21T02:54:58;8.15;;;3.13;;
52898;SDS011;38763;53.096;6.062;2023-08-21T02:57:24;8.93;;;2.90;;
52898;SDS011;38763;53.096;6.062;2023-08-21T02:59:50;7.00;;;2.65;;
52898;SDS011;38763;53.096;6.062;2023-08-21T03:02:16;9.43;;;3.38;;
52898;SDS011;38763;53.096;6.062;2023-08-21T03:04:43;7.63;;;3.28;;
52898;SDS011;38763;53.096;6.062;2023-08-21T03:07:08;8.93;;;3.58;;
52898;SDS011;38763;53.096;6.062;2023-08-21T03:09:34;6.95;;;3.72;;
52898;SDS011;38763;53.096;6.062;2023-08-21T03:12:01;9.73;;;3.80;;
52898;SDS011;38763;53.096;6.062;2023-08-21T03:14:26;10.07;;;4.60;;
52898;SDS011;38763;53.096;6.062;2023-08-21T03:16:52;8.07;;;4.50;;
52898;SDS011;38763;53.096;6.062;2023-08-21T03:19:18;9.43;;;4.30;;
52898;SDS011;38763;53.096;6.062;2023-08-21T03:21:43;8.65;;;4.18;;
52898;SDS011;38763;53.096;6.062;2023-08-21T03:24:09;9.13;;;4.55;;
52898;SDS011;38763;53.096;6.062;2023-08-21T03:26:35;8.98;;;4.30;;
52898;SDS011;38763;53.096;6.062;2023-08-21T03:29:00;8.27;;;3.92;;
52898;SDS011;38763;53.096;6.062;2023-08-21T03:31:26;8.60;;;3.90;;
52898;SDS011;38763;53.096;6.062;2023-08-21T03:33:52;9.90;;;3.90;;
52898;SDS011;38763;53.096;6.062;2023-08-21T03:36:18;9.07;;;3.45;;
52898;SDS011;38763;53.096;6.062;2023-08-21T03:38:44;8.27;;;3.58;;
52898;SDS011;38763;53.096;6.062;2023-08-21T03:41:09;8.60;;;3.67;;
52898;SDS011;38763;53.096;6.062;2023-08-21T03:43:36;8.18;;;3.53;;
52898;SDS011;38763;53.096;6.062;2023-08-21T03:46:01;5.72;;;2.80;;
52898;SDS011;38763;53.096;6.062;2023-08-21T03:48:27;7.53;;;3.47;;
52898;SDS011;38763;53.096;6.062;2023-08-21T03:50:53;7.78;;;3.35;;
52898;SDS011;38763;53.096;6.062;2023-08-21T03:53:18;8.02;;;3.38;;
52898;SDS011;38763;53.096;6.062;2023-08-21T03:55:44;7.03;;;3.28;;
52898;SDS011;38763;53.096;6.062;2023-08-21T03:58:10;7.88;;;3.88;;
52898;SDS011;38763;53.096;6.062;2023-08-21T04:00:36;9.02;;;4.13;;
52898;SDS011;38763;53.096;6.062;2023-08-21T04:03:01;8.20;;;4.20;;
52898;SDS011;38763;53.096;6.062;2023-08-21T04:05:27;8.18;;;4.00;;
52898;SDS011;38763;53.096;6.062;2023-08-21T04:07:53;7.78;;;3.40;;
52898;SDS011;38763;53.096;6.062;2023-08-21T04:10:18;8.50;;;3.80;;
52898;SDS011;38763;53.096;6.062;2023-08-21T04:12:44;7.30;;;3.60;;
52898;SDS011;38763;53.096;6.062;2023-08-21T04:15:10;8.23;;;3.60;;
52898;SDS011;38763;53.096;6.062;2023-08-21T04:17:35;9.05;;;3.80;;
52898;SDS011;38763;53.096;6.062;2023-08-21T04:20:02;5.88;;;3.22;;
52898;SDS011;38763;53.096;6.062;2023-08-21T04:22:28;8.10;;;3.40;;
52898;SDS011;38763;53.096;6.062;2023-08-21T04:24:53;10.85;;;4.28;;
52898;SDS011;38763;53.096;6.062;2023-08-21T04:27:19;8.35;;;3.70;;
52898;SDS011;38763;53.096;6.062;2023-08-21T04:29:45;8.23;;;3.70;;
52898;SDS011;38763;53.096;6.062;2023-08-21T04:32:10;6.88;;;3.42;;
52898;SDS011;38763;53.096;6.062;2023-08-21T04:34:37;7.47;;;3.67;;
52898;SDS011;38763;53.096;6.062;2023-08-21T04:37:02;10.68;;;3.65;;
52898;SDS011;38763;53.096;6.062;2023-08-21T04:39:29;9.45;;;3.67;;
52898;SDS011;38763;53.096;6.062;2023-08-21T04:41:55;7.13;;;3.55;;
52898;SDS011;38763;53.096;6.062;2023-08-21T04:44:21;8.73;;;3.70;;
52898;SDS011;38763;53.096;6.062;2023-08-21T04:46:47;8.95;;;3.90;;
52898;SDS011;38763;53.096;6.062;2023-08-21T04:49:14;9.90;;;3.80;;
52898;SDS011;38763;53.096;6.062;2023-08-21T04:51:40;7.43;;;3.50;;
52898;SDS011;38763;53.096;6.062;2023-08-21T04:54:05;6.95;;;3.38;;
52898;SDS011;38763;53.096;6.062;2023-08-21T04:56:31;7.15;;;3.40;;
52898;SDS011;38763;53.096;6.062;2023-08-21T04:58:56;8.45;;;3.88;;
52898;SDS011;38763;53.096;6.062;2023-08-21T05:01:22;11.23;;;3.80;;
52898;SDS011;38763;53.096;6.062;2023-08-21T05:03:49;9.02;;;3.80;;
52898;SDS011;38763;53.096;6.062;2023-08-21T05:06:15;7.30;;;3.55;;
52898;SDS011;38763;53.096;6.062;2023-08-21T05:08:41;7.38;;;3.35;;
52898;SDS011;38763;53.096;6.062;2023-08-21T05:11:06;7.65;;;3.80;;
52898;SDS011;38763;53.096;6.062;2023-08-21T05:13:32;7.40;;;3.50;;
52898;SDS011;38763;53.096;6.062;2023-08-21T05:15:58;9.65;;;3.58;;
52898;SDS011;38763;53.096;6.062;2023-08-21T05:18:24;8.13;;;3.50;;
52898;SDS011;38763;53.096;6.062;2023-08-21T05:20:52;7.72;;;3.53;;
52898;SDS011;38763;53.096;6.062;2023-08-21T05:23:18;5.57;;;3.30;;
52898;SDS011;38763;53.096;6.062;2023-08-21T05:25:44;8.45;;;3.45;;
52898;SDS011;38763;53.096;6.062;2023-08-21T05:28:10;7.03;;;3.10;;
52898;SDS011;38763;53.096;6.062;2023-08-21T05:30:36;5.68;;;3.08;;
52898;SDS011;38763;53.096;6.062;2023-08-21T05:33:03;5.75;;;2.95;;
52898;SDS011;38763;53.096;6.062;2023-08-21T05:35:32;6.43;;;3.00;;
52898;SDS011;38763;53.096;6.062;2023-08-21T05:38:02;6.85;;;3.28;;
52898;SDS011;38763;53.096;6.062;2023-08-21T05:40:28;6.85;;;3.25;;
52898;SDS011;38763;53.096;6.062;2023-08-21T05:42:54;8.60;;;3.20;;
52898;SDS011;38763;53.096;6.062;2023-08-21T05:45:20;7.95;;;3.25;;
52898;SDS011;38763;53.096;6.062;2023-08-21T05:47:46;8.50;;;3.22;;
52898;SDS011;38763;53.096;6.062;2023-08-21T05:50:11;9.02;;;3.53;;
52898;SDS011;38763;53.096;6.062;2023-08-21T05:52:37;9.70;;;3.58;;
52898;SDS011;38763;53.096;6.062;2023-08-21T05:55:03;9.15;;;3.35;;
52898;SDS011;38763;53.096;6.062;2023-08-21T05:57:29;7.90;;;3.33;;
52898;SDS011;38763;53.096;6.062;2023-08-21T05:59:55;8.23;;;3.25;;
52898;SDS011;38763;53.096;6.062;2023-08-21T06:02:21;13.23;;;3.92;;
52898;SDS011;38763;53.096;6.062;2023-08-21T06:04:46;9.35;;;3.60;;
52898;SDS011;38763;53.096;6.062;2023-08-21T06:07:12;11.85;;;4.25;;
52898;SDS011;38763;53.096;6.062;2023-08-21T06:09:38;8.50;;;3.97;;
52898;SDS011;38763;53.096;6.062;2023-08-21T06:12:03;9.88;;;3.95;;
52898;SDS011;38763;53.096;6.062;2023-08-21T06:14:29;7.72;;;3.58;;
52898;SDS011;38763;53.096;6.062;2023-08-21T06:17:02;8.70;;;3.90;;
52898;SDS011;38763;53.096;6.062;2023-08-21T06:19:28;10.55;;;3.88;;
52898;SDS011;38763;53.096;6.062;2023-08-21T06:21:54;11.07;;;3.95;;
52898;SDS011;38763;53.096;6.062;2023-08-21T06:24:21;9.18;;;3.75;;
52898;SDS011;38763;53.096;6.062;2023-08-21T06:26:47;11.18;;;3.90;;
52898;SDS011;38763;53.096;6.062;2023-08-21T06:29:12;9.95;;;3.47;;
52898;SDS011;38763;53.096;6.062;2023-08-21T06:31:38;10.52;;;3.78;;
52898;SDS011;38763;53.096;6.062;2023-08-21T06:34:03;8.65;;;3.90;;
52898;SDS011;38763;53.096;6.062;2023-08-21T06:36:29;12.23;;;3.53;;
52898;SDS011;38763;53.096;6.062;2023-08-21T06:38:55;11.68;;;3.63;;
52898;SDS011;38763;53.096;6.062;2023-08-21T06:41:21;10.70;;;3.22;;
52898;SDS011;38763;53.096;6.062;2023-08-21T06:43:47;10.15;;;4.05;;
52898;SDS011;38763;53.096;6.062;2023-08-21T06:46:12;9.65;;;3.42;;
52898;SDS011;38763;53.096;6.062;2023-08-21T06:48:38;7.22;;;3.15;;
52898;SDS011;38763;53.096;6.062;2023-08-21T06:51:08;8.73;;;3.13;;
52898;SDS011;38763;53.096;6.062;2023-08-21T06:53:37;8.88;;;3.58;;
52898;SDS011;38763;53.096;6.062;2023-08-21T06:56:02;7.30;;;2.92;;
52898;SDS011;38763;53.096;6.062;2023-08-21T06:58:28;10.65;;;2.83;;
52898;SDS011;38763;53.096;6.062;2023-08-21T07:00:54;10.93;;;3.13;;
52898;SDS011;38763;53.096;6.062;2023-08-21T07:03:20;7.97;;;2.88;;
52898;SDS011;38763;53.096;6.062;2023-08-21T07:05:52;7.28;;;2.67;;
52898;SDS011;38763;53.096;6.062;2023-08-21T07:08:20;10.45;;;3.08;;
52898;SDS011;38763;53.096;6.062;2023-08-21T07:10:46;7.95;;;2.80;;
52898;SDS011;38763;53.096;6.062;2023-08-21T07:13:11;7.88;;;2.72;;
52898;SDS011;38763;53.096;6.062;2023-08-21T07:15:37;7.28;;;2.67;;
52898;SDS011;38763;53.096;6.062;2023-08-21T07:18:03;10.07;;;2.65;;
52898;SDS011;38763;53.096;6.062;2023-08-21T07:20:28;6.35;;;2.92;;
52898;SDS011;38763;53.096;6.062;2023-08-21T07:22:54;6.35;;;2.85;;
52898;SDS011;38763;53.096;6.062;2023-08-21T07:25:20;7.05;;;2.90;;
52898;SDS011;38763;53.096;6.062;2023-08-21T07:27:45;7.88;;;2.53;;
52898;SDS011;38763;53.096;6.062;2023-08-21T07:30:11;10.07;;;3.17;;
52898;SDS011;38763;53.096;6.062;2023-08-21T07:32:37;8.38;;;2.75;;
52898;SDS011;38763;53.096;6.062;2023-08-21T07:35:02;9.68;;;2.38;;
52898;SDS011;38763;53.096;6.062;2023-08-21T07:37:28;8.63;;;2.60;;
52898;SDS011;38763;53.096;6.062;2023-08-21T07:39:54;7.75;;;2.60;;
52898;SDS011;38763;53.096;6.062;2023-08-21T07:42:22;7.95;;;2.63;;
52898;SDS011;38763;53.096;6.062;2023-08-21T07:44:48;11.20;;;3.45;;
52898;SDS011;38763;53.096;6.062;2023-08-21T07:47:14;9.15;;;2.75;;
52898;SDS011;38763;53.096;6.062;2023-08-21T07:49:40;7.32;;;2.97;;
52898;SDS011;38763;53.096;6.062;2023-08-21T07:52:06;10.68;;;3.50;;
52898;SDS011;38763;53.096;6.062;2023-08-21T07:54:31;9.95;;;3.10;;
52898;SDS011;38763;53.096;6.062;2023-08-21T07:56:57;9.95;;;3.00;;
52898;SDS011;38763;53.096;6.062;2023-08-21T07:59:22;8.20;;;2.75;;
52898;SDS011;38763;53.096;6.062;2023-08-21T08:01:49;7.57;;;2.72;;
52898;SDS011;38763;53.096;6.062;2023-08-21T08:04:15;8.35;;;2.50;;
52898;SDS011;38763;53.096;6.062;2023-08-21T08:06:41;8.52;;;2.65;;
52898;SDS011;38763;53.096;6.062;2023-08-21T08:09:06;8.20;;;2.55;;
52898;SDS011;38763;53.096;6.062;2023-08-21T08:11:32;7.80;;;2.33;;
52898;SDS011;38763;53.096;6.062;2023-08-21T08:13:58;8.02;;;2.15;;
52898;SDS011;38763;53.096;6.062;2023-08-21T08:16:24;8.50;;;2.38;;
52898;SDS011;38763;53.096;6.062;2023-08-21T08:18:50;7.97;;;2.40;;
52898;SDS011;38763;53.096;6.062;2023-08-21T08:21:15;5.25;;;1.95;;
52898;SDS011;38763;53.096;6.062;2023-08-21T08:23:41;7.75;;;2.20;;
52898;SDS011;38763;53.096;6.062;2023-08-21T08:26:07;6.25;;;2.28;;
52898;SDS011;38763;53.096;6.062;2023-08-21T08:28:33;7.90;;;1.90;;
52898;SDS011;38763;53.096;6.062;2023-08-21T08:31:00;7.93;;;2.10;;
52898;SDS011;38763;53.096;6.062;2023-08-21T08:33:26;5.65;;;2.40;;
52898;SDS011;38763;53.096;6.062;2023-08-21T08:35:51;7.55;;;2.03;;
52898;SDS011;38763;53.096;6.062;2023-08-21T08:38:17;7.30;;;2.30;;
52898;SDS011;38763;53.096;6.062;2023-08-21T08:40:47;5.95;;;2.20;;
52898;SDS011;38763;53.096;6.062;2023-08-21T08:43:14;7.85;;;2.30;;
52898;SDS011;38763;53.096;6.062;2023-08-21T08:45:41;5.95;;;1.80;;
52898;SDS011;38763;53.096;6.062;2023-08-21T08:48:07;11.43;;;2.60;;
52898;SDS011;38763;53.096;6.062;2023-08-21T08:50:33;10.57;;;3.00;;
52898;SDS011;38763;53.096;6.062;2023-08-21T08:52:59;8.35;;;2.50;;
52898;SDS011;38763;53.096;6.062;2023-08-21T08:55:26;7.90;;;2.05;;
52898;SDS011;38763;53.096;6.062;2023-08-21T08:57:52;9.55;;;2.45;;
52898;SDS011;38763;53.096;6.062;2023-08-21T09:00:19;7.57;;;2.50;;
52898;SDS011;38763;53.096;6.062;2023-08-21T09:02:45;6.55;;;1.90;;
52898;SDS011;38763;53.096;6.062;2023-08-21T09:05:12;5.50;;;1.75;;
52898;SDS011;38763;53.096;6.062;2023-08-21T09:07:38;12.43;;;2.38;;
52898;SDS011;38763;53.096;6.062;2023-08-21T09:10:04;9.07;;;2.22;;
52898;SDS011;38763;53.096;6.062;2023-08-21T09:12:37;11.00;;;2.10;;
52898;SDS011;38763;53.096;6.062;2023-08-21T09:15:07;8.43;;;2.20;;
52898;SDS011;38763;53.096;6.062;2023-08-21T09:17:33;6.35;;;1.80;;
52898;SDS011;38763;53.096;6.062;2023-08-21T09:20:05;7.63;;;2.38;;
52898;SDS011;38763;53.096;6.062;2023-08-21T09:22:33;9.35;;;2.55;;
52898;SDS011;38763;53.096;6.062;2023-08-21T09:25:08;7.30;;;2.38;;
52898;SDS011;38763;53.096;6.062;2023-08-21T09:27:38;6.57;;;1.90;;
52898;SDS011;38763;53.096;6.062;2023-08-21T09:30:05;7.70;;;2.20;;
52898;SDS011;38763;53.096;6.062;2023-08-21T09:32:52;8.90;;;2.03;;
52898;SDS011;38763;53.096;6.062;2023-08-21T09:35:23;5.82;;;1.77;;
52898;SDS011;38763;53.096;6.062;2023-08-21T09:37:49;8.18;;;1.88;;
52898;SDS011;38763;53.096;6.062;2023-08-21T09:40:18;9.40;;;1.60;;
52898;SDS011;38763;53.096;6.062;2023-08-21T09:42:44;7.47;;;2.00;;
52898;SDS011;38763;53.096;6.062;2023-08-21T09:45:10;6.43;;;1.88;;
52898;SDS011;38763;53.096;6.062;2023-08-21T09:47:36;6.28;;;1.50;;
52898;SDS011;38763;53.096;6.062;2023-08-21T09:50:06;8.10;;;1.77;;
52898;SDS011;38763;53.096;6.062;2023-08-21T09:52:32;9.02;;;1.95;;
52898;SDS011;38763;53.096;6.062;2023-08-21T09:54:59;7.32;;;1.60;;
52898;SDS011;38763;53.096;6.062;2023-08-21T09:57:28;6.13;;;1.50;;
52898;SDS011;38763;53.096;6.062;2023-08-21T09:59:54;6.43;;;1.50;;
52898;SDS011;38763;53.096;6.062;2023-08-21T10:02:21;4.53;;;1.35;;
52898;SDS011;38763;53.096;6.062;2023-08-21T10:04:48;8.57;;;1.45;;
52898;SDS011;38763;53.096;6.062;2023-08-21T10:07:21;5.25;;;1.50;;
52898;SDS011;38763;53.096;6.062;2023-08-21T10:09:52;9.30;;;1.80;;
52898;SDS011;38763;53.096;6.062;2023-08-21T10:12:20;5.93;;;1.40;;
52898;SDS011;38763;53.096;6.062;2023-08-21T10:14:47;5.65;;;1.40;;
52898;SDS011;38763;53.096;6.062;2023-08-21T10:17:13;6.38;;;2.20;;
52898;SDS011;38763;53.096;6.062;2023-08-21T10:19:39;8.63;;;1.40;;
52898;SDS011;38763;53.096;6.062;2023-08-21T10:22:04;5.28;;;1.50;;
52898;SDS011;38763;53.096;6.062;2023-08-21T10:24:34;7.07;;;1.30;;
52898;SDS011;38763;53.096;6.062;2023-08-21T10:27:01;6.00;;;1.40;;
52898;SDS011;38763;53.096;6.062;2023-08-21T10:29:27;6.63;;;1.40;;
52898;SDS011;38763;53.096;6.062;2023-08-21T10:32:03;7.35;;;1.58;;
52898;SDS011;38763;53.096;6.062;2023-08-21T10:34:33;10.85;;;1.70;;
52898;SDS011;38763;53.096;6.062;2023-08-21T10:37:06;7.65;;;1.77;;
52898;SDS011;38763;53.096;6.062;2023-08-21T10:39:37;5.00;;;1.30;;
52898;SDS011;38763;53.096;6.062;2023-08-21T10:50:04;7.40;;;1.73;;
52898;SDS011;38763;53.096;6.062;2023-08-21T10:52:39;6.40;;;1.52;;
52898;SDS011;38763;53.096;6.062;2023-08-21T10:55:08;5.95;;;1.40;;
52898;SDS011;38763;53.096;6.062;2023-08-21T10:57:34;8.45;;;1.73;;
52898;SDS011;38763;53.096;6.062;2023-08-21T11:00:04;7.15;;;1.50;;
52898;SDS011;38763;53.096;6.062;2023-08-21T11:02:36;7.10;;;1.60;;
52898;SDS011;38763;53.096;6.062;2023-08-21T11:05:05;7.95;;;1.38;;
52898;SDS011;38763;53.096;6.062;2023-08-21T11:07:39;7.43;;;1.83;;
52898;SDS011;38763;53.096;6.062;2023-08-21T11:10:12;5.15;;;1.23;;
52898;SDS011;38763;53.096;6.062;2023-08-21T11:12:49;6.32;;;1.90;;
52898;SDS011;38763;53.096;6.062;2023-08-21T11:15:16;5.40;;;1.50;;
52898;SDS011;38763;53.096;6.062;2023-08-21T11:17:50;5.70;;;1.40;;
52898;SDS011;38763;53.096;6.062;2023-08-21T11:20:19;5.03;;;1.30;;
52898;SDS011;38763;53.096;6.062;2023-08-21T11:22:45;5.53;;;1.20;;
52898;SDS011;38763;53.096;6.062;2023-08-21T11:25:11;4.80;;;1.40;;
52898;SDS011;38763;53.096;6.062;2023-08-21T11:27:37;5.45;;;1.30;;
52898;SDS011;38763;53.096;6.062;2023-08-21T11:30:03;7.35;;;1.90;;
52898;SDS011;38763;53.096;6.062;2023-08-21T11:32:29;5.75;;;1.25;;
52898;SDS011;38763;53.096;6.062;2023-08-21T11:34:55;5.93;;;1.33;;
52898;SDS011;38763;53.096;6.062;2023-08-21T11:37:23;6.20;;;1.10;;
52898;SDS011;38763;53.096;6.062;2023-08-21T11:39:51;9.60;;;1.63;;
52898;SDS011;38763;53.096;6.062;2023-08-21T11:42:18;8.55;;;1.33;;
52898;SDS011;38763;53.096;6.062;2023-08-21T11:44:51;8.32;;;1.50;;
52898;SDS011;38763;53.096;6.062;2023-08-21T11:47:18;6.78;;;1.20;;
52898;SDS011;38763;53.096;6.062;2023-08-21T11:49:48;6.30;;;1.10;;
52898;SDS011;38763;53.096;6.062;2023-08-21T11:52:20;4.53;;;1.10;;
52898;SDS011;38763;53.096;6.062;2023-08-21T11:54:52;6.10;;;1.13;;
52898;SDS011;38763;53.096;6.062;2023-08-21T11:57:19;5.45;;;1.27;;
52898;SDS011;38763;53.096;6.062;2023-08-21T11:59:54;4.75;;;1.05;;
52898;SDS011;38763;53.096;6.062;2023-08-21T12:05:06;3.75;;;1.00;;
52898;SDS011;38763;53.096;6.062;2023-08-21T12:07:38;5.05;;;1.10;;
52898;SDS011;38763;53.096;6.062;2023-08-21T12:10:04;3.95;;;0.93;;
52898;SDS011;38763;53.096;6.062;2023-08-21T12:12:30;4.78;;;1.13;;
52898;SDS011;38763;53.096;6.062;2023-08-21T12:14:55;4.60;;;1.20;;
52898;SDS011;38763;53.096;6.062;2023-08-21T12:17:22;4.55;;;1.10;;
52898;SDS011;38763;53.096;6.062;2023-08-21T12:19:47;3.13;;;0.88;;
52898;SDS011;38763;53.096;6.062;2023-08-21T12:22:13;3.50;;;0.90;;
52898;SDS011;38763;53.096;6.062;2023-08-21T12:24:39;5.63;;;1.40;;
52898;SDS011;38763;53.096;6.062;2023-08-21T12:27:05;4.28;;;1.05;;
52898;SDS011;38763;53.096;6.062;2023-08-21T12:29:31;3.47;;;0.85;;
52898;SDS011;38763;53.096;6.062;2023-08-21T12:31:57;7.13;;;1.40;;
52898;SDS011;38763;53.096;6.062;2023-08-21T12:34:23;6.53;;;1.23;;
52898;SDS011;38763;53.096;6.062;2023-08-21T12:36:51;5.45;;;1.17;;
52898;SDS011;38763;53.096;6.062;2023-08-21T12:39:17;5.85;;;1.30;;
52898;SDS011;38763;53.096;6.062;2023-08-21T12:41:43;5.38;;;1.10;;
52898;SDS011;38763;53.096;6.062;2023-08-21T12:44:09;5.15;;;1.10;;
52898;SDS011;38763;53.096;6.062;2023-08-21T12:46:35;5.85;;;1.40;;
52898;SDS011;38763;53.096;6.062;2023-08-21T12:49:02;5.82;;;1.08;;
52898;SDS011;38763;53.096;6.062;2023-08-21T12:51:29;4.20;;;0.95;;
52898;SDS011;38763;53.096;6.062;2023-08-21T12:53:55;3.90;;;1.00;;
52898;SDS011;38763;53.096;6.062;2023-08-21T12:56:21;4.40;;;1.00;;
52898;SDS011;38763;53.096;6.062;2023-08-21T12:58:47;5.43;;;1.00;;
52898;SDS011;38763;53.096;6.062;2023-08-21T13:01:13;3.83;;;0.90;;
52898;SDS011;38763;53.096;6.062;2023-08-21T13:03:43;6.75;;;1.08;;
52898;SDS011;38763;53.096;6.062;2023-08-21T13:06:12;4.43;;;1.00;;
52898;SDS011;38763;53.096;6.062;2023-08-21T13:08:38;4.63;;;1.10;;
52898;SDS011;38763;53.096;6.062;2023-08-21T13:11:03;3.75;;;1.13;;
52898;SDS011;38763;53.096;6.062;2023-08-21T13:13:30;4.57;;;0.98;;
52898;SDS011;38763;53.096;6.062;2023-08-21T13:15:56;6.03;;;0.95;;
52898;SDS011;38763;53.096;6.062;2023-08-21T13:18:22;4.88;;;1.10;;
52898;SDS011;38763;53.096;6.062;2023-08-21T13:20:48;5.15;;;1.20;;
52898;SDS011;38763;53.096;6.062;2023-08-21T13:23:13;8.30;;;1.30;;
52898;SDS011;38763;53.096;6.062;2023-08-21T13:25:39;7.28;;;1.38;;
52898;SDS011;38763;53.096;6.062;2023-08-21T13:28:05;5.80;;;1.20;;
52898;SDS011;38763;53.096;6.062;2023-08-21T13:30:30;5.65;;;1.20;;
52898;SDS011;38763;53.096;6.062;2023-08-21T13:32:56;5.45;;;1.23;;
52898;SDS011;38763;53.096;6.062;2023-08-21T13:35:22;5.07;;;1.20;;
52898;SDS011;38763;53.096;6.062;2023-08-21T13:37:48;5.40;;;1.38;;
52898;SDS011;38763;53.096;6.062;2023-08-21T13:40:15;5.63;;;1.40;;
52898;SDS011;38763;53.096;6.062;2023-08-21T13:42:41;5.20;;;1.33;;
52898;SDS011;38763;53.096;6.062;2023-08-21T13:45:09;5.85;;;1.55;;
52898;SDS011;38763;53.096;6.062;2023-08-21T13:47:39;5.10;;;1.30;;
52898;SDS011;38763;53.096;6.062;2023-08-21T13:50:09;6.18;;;1.35;;
52898;SDS011;38763;53.096;6.062;2023-08-21T13:52:36;7.65;;;1.40;;
52898;SDS011;38763;53.096;6.062;2023-08-21T13:55:01;3.90;;;1.27;;
52898;SDS011;38763;53.096;6.062;2023-08-21T13:57:28;5.68;;;1.40;;
52898;SDS011;38763;53.096;6.062;2023-08-21T13:59:53;9.23;;;2.38;;
52898;SDS011;38763;53.096;6.062;2023-08-21T14:02:19;6.47;;;2.55;;
52898;SDS011;38763;53.096;6.062;2023-08-21T14:04:45;6.57;;;2.33;;
52898;SDS011;38763;53.096;6.062;2023-08-21T14:07:11;6.38;;;2.28;;
52898;SDS011;38763;53.096;6.062;2023-08-21T14:09:37;7.82;;;2.60;;
52898;SDS011;38763;53.096;6.062;2023-08-21T14:12:03;8.40;;;2.40;;
52898;SDS011;38763;53.096;6.062;2023-08-21T14:14:29;11.38;;;3.35;;
52898;SDS011;38763;53.096;6.062;2023-08-21T14:16:55;5.05;;;1.98;;
52898;SDS011;38763;53.096;6.062;2023-08-21T14:19:20;7.38;;;2.15;;
52898;SDS011;38763;53.096;6.062;2023-08-21T14:21:46;6.35;;;2.13;;
52898;SDS011;38763;53.096;6.062;2023-08-21T14:24:11;8.73;;;2.47;;
52898;SDS011;38763;53.096;6.062;2023-08-21T14:26:37;8.85;;;3.00;;
52898;SDS011;38763;53.096;6.062;2023-08-21T14:29:04;11.90;;;2.70;;
52898;SDS011;38763;53.096;6.062;2023-08-21T14:31:30;7.53;;;2.70;;
52898;SDS011;38763;53.096;6.062;2023-08-21T14:33:56;7.95;;;2.20;;
52898;SDS011;38763;53.096;6.062;2023-08-21T14:36:22;9.30;;;2.80;;
52898;SDS011;38763;53.096;6.062;2023-08-21T14:38:48;7.40;;;2.67;;
52898;SDS011;38763;53.096;6.062;2023-08-21T14:41:15;8.07;;;2.60;;
52898;SDS011;38763;53.096;6.062;2023-08-21T14:43:41;5.45;;;1.95;;
52898;SDS011;38763;53.096;6.062;2023-08-21T14:46:08;7.05;;;2.25;;
52898;SDS011;38763;53.096;6.062;2023-08-21T14:48:33;7.50;;;1.70;;
52898;SDS011;38763;53.096;6.062;2023-08-21T14:50:59;5.75;;;1.67;;
52898;SDS011;38763;53.096;6.062;2023-08-21T14:53:25;9.75;;;1.70;;